createdAt,value
2018-07-07T00:00:49.569Z,94760.78
2018-07-07T00:03:18.647Z,94762.23
2018-07-07T00:05:47.858Z,94770.46
2018-07-07T00:08:17.787Z,94774.47
2018-07-07T00:10:54.841Z,94777.73
2018-07-07T00:13:25.087Z,94774.95
2018-07-07T00:15:53.958Z,94774.06
2018-07-07T00:18:22.961Z,94747.14
2018-07-07T00:20:52.292Z,94769.72
2018-07-07T00:23:21.082Z,94766.05
2018-07-07T00:25:50.038Z,94763.62
2018-07-07T00:28:19.293Z,94764.72
2018-07-07T00:30:48.030Z,94765.85
2018-07-07T00:33:17.188Z,94764.97
2018-07-07T00:35:50.721Z,94756.16
2018-07-07T00:38:20.507Z,94748.48
2018-07-07T00:40:49.459Z,94741.70
2018-07-07T00:43:18.900Z,94741.70
2018-07-07T00:45:47.829Z,94750.52
2018-07-07T00:48:17.126Z,94754.73
2018-07-07T00:50:46.761Z,94752.75
2018-07-07T00:53:16.576Z,94751.20
2018-07-07T00:55:45.494Z,94747.19
2018-07-07T00:58:14.728Z,94751.20
2018-07-07T01:00:51.486Z,94748.29
2018-07-07T01:03:20.726Z,94751.17
2018-07-07T01:05:50.113Z,94748.50
2018-07-07T01:08:19.365Z,94748.27
2018-07-07T01:10:48.633Z,94751.42
2018-07-07T01:13:17.746Z,94748.30
2018-07-07T01:15:46.662Z,94742.28
2018-07-07T01:18:15.928Z,94743.75
2018-07-07T01:20:45.011Z,94746.32
2018-07-07T01:23:13.816Z,94745.88
2018-07-07T01:25:43.117Z,94746.08
2018-07-07T01:28:12.089Z,94751.18
2018-07-07T01:30:40.881Z,94731.63
2018-07-07T01:33:10.099Z,94746.32
2018-07-07T01:35:39.073Z,94748.55
2018-07-07T01:38:08.053Z,94730.28
2018-07-07T01:40:37.182Z,94745.63
2018-07-07T01:43:06.232Z,94743.85
2018-07-07T01:45:35.145Z,94747.86
2018-07-07T01:48:04.654Z,94750.33
2018-07-07T01:50:33.754Z,94746.52
2018-07-07T01:53:02.768Z,94744.20
2018-07-07T01:55:32.199Z,94746.52
2018-07-07T01:58:01.889Z,94744.74
2018-07-07T02:00:31.044Z,94744.98
2018-07-07T02:03:00.593Z,94749.44
2018-07-07T02:05:29.883Z,94737.86
2018-07-07T02:07:59.026Z,94736.08
2018-07-07T02:10:28.423Z,94736.72
2018-07-07T02:12:57.509Z,94729.50
2018-07-07T02:15:26.678Z,94730.62
2018-07-07T02:17:55.894Z,94729.39
2018-07-07T02:20:25.286Z,94721.61
2018-07-07T02:22:54.673Z,94725.83
2018-07-07T02:25:24.962Z,94721.61
2018-07-07T02:27:53.774Z,94720.83
2018-07-07T02:30:22.690Z,94721.61
2018-07-07T02:32:52.604Z,94728.06
2018-07-07T02:35:21.477Z,94724.94
2018-07-07T02:37:50.371Z,94729.19
2018-07-07T02:40:19.411Z,94737.20
2018-07-07T02:42:48.571Z,94733.09
2018-07-07T02:45:17.551Z,94737.86
2018-07-07T02:47:47.059Z,94736.31
2018-07-07T02:50:16.980Z,94736.42
2018-07-07T02:52:46.916Z,94733.20
2018-07-07T02:55:16.237Z,94733.64
2018-07-07T02:57:45.424Z,94740.91
2018-07-07T03:00:14.602Z,94751.01
2018-07-07T03:02:43.623Z,94747.89
2018-07-07T03:05:12.375Z,94752.14
2018-07-07T03:07:41.679Z,94744.91
2018-07-07T03:10:10.847Z,94744.33
2018-07-07T03:12:39.670Z,94729.84
2018-07-07T03:15:08.670Z,94729.42
2018-07-07T03:17:38.921Z,94737.55
2018-07-07T03:20:10.154Z,94736.55
2018-07-07T03:22:39.262Z,94742.58
2018-07-07T03:25:08.653Z,94748.81
2018-07-07T03:27:37.481Z,94749.59
2018-07-07T03:30:06.406Z,94757.03
2018-07-07T03:32:35.221Z,94757.03
2018-07-07T03:35:04.243Z,94755.72
2018-07-07T03:37:33.229Z,94754.69
2018-07-07T03:40:02.505Z,94745.92
2018-07-07T03:42:31.792Z,94751.36
2018-07-07T03:45:00.759Z,94745.36
2018-07-07T03:47:29.883Z,94744.79
2018-07-07T03:49:58.775Z,94750.47
2018-07-07T03:52:27.580Z,94743.00
2018-07-07T03:54:56.685Z,94756.36
2018-07-07T03:57:25.986Z,94757.03
2018-07-07T03:59:54.942Z,94759.50
2018-07-07T04:02:24.147Z,94755.49
2018-07-07T04:04:53.370Z,94743.02
2018-07-07T04:07:22.192Z,94745.70
2018-07-07T04:09:51.250Z,94747.03
2018-07-07T04:12:20.533Z,94750.80
2018-07-07T04:14:49.423Z,94756.04
2018-07-07T04:17:18.533Z,94758.27
2018-07-07T04:19:48.033Z,94753.27
2018-07-07T04:22:17.237Z,94752.14
2018-07-07T04:24:46.343Z,94749.04
2018-07-07T04:27:15.642Z,94745.92
2018-07-07T04:29:44.623Z,94747.47
2018-07-07T04:32:13.619Z,94740.79
2018-07-07T04:34:42.922Z,94750.92
2018-07-07T04:37:11.706Z,94734.77
2018-07-07T04:39:40.701Z,94735.34
2018-07-07T04:42:10.058Z,94728.42
2018-07-07T04:44:39.333Z,94724.52
2018-07-07T04:47:08.305Z,94724.31
2018-07-07T04:49:37.845Z,94725.11
2018-07-07T04:52:06.808Z,94731.89
2018-07-07T04:54:35.905Z,94739.11
2018-07-07T04:57:05.330Z,94731.89
2018-07-07T04:59:34.296Z,94731.78
2018-07-07T05:02:03.150Z,94736.55
2018-07-07T05:04:32.668Z,94736.78
2018-07-07T05:07:01.592Z,94737.67
2018-07-07T05:09:30.591Z,94735.69
2018-07-07T05:11:59.739Z,94737.23
2018-07-07T05:14:28.681Z,94734.55
2018-07-07T05:16:58.058Z,94744.02
2018-07-07T05:19:27.413Z,94744.36
2018-07-07T05:21:56.269Z,94745.80
2018-07-07T05:24:25.481Z,94747.69
2018-07-07T05:26:54.891Z,94758.58
2018-07-07T05:29:23.660Z,94758.03
2018-07-07T05:31:52.779Z,94765.47
2018-07-07T05:34:21.780Z,94759.42
2018-07-07T05:36:50.650Z,94758.64
2018-07-07T05:39:19.633Z,94764.33
2018-07-07T05:41:49.226Z,94745.38
2018-07-07T05:44:18.033Z,94756.70
2018-07-07T05:46:47.031Z,94758.69
2018-07-07T05:49:16.449Z,94766.14
2018-07-07T05:51:45.421Z,94759.98
2018-07-07T05:54:14.314Z,94764.74
2018-07-07T05:56:43.853Z,94768.77
2018-07-07T05:59:13.150Z,94770.34
2018-07-07T06:01:42.426Z,94767.56
2018-07-07T06:04:11.832Z,94768.78
2018-07-07T06:06:40.620Z,94769.42
2018-07-07T06:09:09.918Z,94770.67
2018-07-07T06:11:39.265Z,94767.44
2018-07-07T06:14:08.058Z,94771.15
2018-07-07T06:16:37.000Z,94777.05
2018-07-07T06:19:06.217Z,94782.42
2018-07-07T06:21:34.981Z,94784.02
2018-07-07T06:24:03.901Z,94783.12
2018-07-07T06:26:33.297Z,94785.98
2018-07-07T06:29:02.056Z,94778.14
2018-07-07T06:31:31.163Z,94774.80
2018-07-07T06:34:00.355Z,94772.78
2018-07-07T06:36:29.105Z,94768.12
2018-07-07T06:38:57.949Z,94771.27
2018-07-07T06:41:27.213Z,94769.92
2018-07-07T06:43:56.297Z,94768.02
2018-07-07T06:46:25.530Z,94768.31
2018-07-07T06:48:54.577Z,94767.56
2018-07-07T06:51:23.525Z,94770.47
2018-07-07T06:53:52.769Z,94775.33
2018-07-07T06:56:22.165Z,94776.79
2018-07-07T06:58:51.129Z,94771.58
2018-07-07T07:01:20.039Z,94770.63
2018-07-07T07:03:49.252Z,94768.20
2018-07-07T07:06:18.407Z,94766.37
2018-07-07T07:08:47.626Z,94766.37
2018-07-07T07:11:16.943Z,94760.21
2018-07-07T07:13:45.816Z,94761.23
2018-07-07T07:16:14.585Z,94763.33
2018-07-07T07:18:44.057Z,94758.41
2018-07-07T07:21:12.995Z,94756.73
2018-07-07T07:23:41.976Z,94750.63
2018-07-07T07:26:11.641Z,94744.92
2018-07-07T07:28:40.607Z,94747.80
2018-07-07T07:31:09.491Z,94747.59
2018-07-07T07:33:38.704Z,94747.80
2018-07-07T07:36:10.346Z,94737.33
2018-07-07T07:38:40.073Z,94742.45
2018-07-07T07:41:08.906Z,94735.44
2018-07-07T07:43:38.215Z,94728.42
2018-07-07T07:46:07.170Z,94723.16
2018-07-07T07:48:36.056Z,94725.84
2018-07-07T07:51:05.005Z,94738.67
2018-07-07T07:53:34.247Z,94735.76
2018-07-07T07:56:03.236Z,94734.42
2018-07-07T07:58:32.413Z,94726.63
2018-07-07T08:01:01.845Z,94724.50
2018-07-07T08:03:30.674Z,94716.70
2018-07-07T08:05:59.489Z,94720.14
2018-07-07T08:08:28.927Z,94712.89
2018-07-07T08:10:58.117Z,94709.43
2018-07-07T08:13:27.109Z,94702.73
2018-07-07T08:15:56.330Z,94705.84
2018-07-07T08:18:25.295Z,94707.39
2018-07-07T08:20:54.272Z,94707.62
2018-07-07T08:23:23.496Z,94702.48
2018-07-07T08:25:52.378Z,94699.45
2018-07-07T08:28:21.123Z,94693.66
2018-07-07T08:30:50.164Z,94700.47
2018-07-07T08:33:19.143Z,94700.12
2018-07-07T08:35:47.944Z,94690.75
2018-07-07T08:38:18.657Z,94699.97
2018-07-07T08:40:47.555Z,94704.22
2018-07-07T08:43:17.965Z,94716.82
2018-07-07T08:45:47.736Z,94711.11
2018-07-07T08:48:17.159Z,94713.44
2018-07-07T08:50:46.530Z,94716.91
2018-07-07T08:53:16.056Z,94707.33
2018-07-07T08:55:45.848Z,94707.77
2018-07-07T08:58:14.727Z,94703.40
2018-07-07T09:00:44.008Z,94701.71
2018-07-07T09:03:13.428Z,94700.38
2018-07-07T09:05:42.410Z,94700.14
2018-07-07T09:08:11.962Z,94704.59
2018-07-07T09:10:40.913Z,94705.93
2018-07-07T09:13:09.918Z,94707.50
2018-07-07T09:15:39.182Z,94707.50
2018-07-07T09:18:08.101Z,94706.95
2018-07-07T09:20:37.097Z,94705.26
2018-07-07T09:23:06.500Z,94702.70
2018-07-07T09:25:35.297Z,94694.84
2018-07-07T09:28:04.607Z,94694.39
2018-07-07T09:30:33.760Z,94695.03
2018-07-07T09:33:02.498Z,94694.28
2018-07-07T09:35:32.022Z,94699.98
2018-07-07T09:38:01.139Z,94704.00
2018-07-07T09:40:29.863Z,94713.66
2018-07-07T09:42:58.656Z,94729.44
2018-07-07T09:45:27.986Z,94733.14
2018-07-07T09:47:56.705Z,94734.48
2018-07-07T09:50:25.472Z,94735.27
2018-07-07T09:52:54.353Z,94721.03
2018-07-07T09:55:23.072Z,94621.73
2018-07-07T09:57:51.873Z,94725.41
2018-07-07T10:00:26.141Z,94723.83
2018-07-07T10:02:54.850Z,94726.28
2018-07-07T10:05:23.613Z,94731.98
2018-07-07T10:07:52.585Z,94729.25
2018-07-07T10:10:21.374Z,94733.50
2018-07-07T10:12:50.258Z,94741.37
2018-07-07T10:15:19.422Z,94755.20
2018-07-07T10:17:48.374Z,94763.13
2018-07-07T10:20:17.462Z,94774.27
2018-07-07T10:22:46.500Z,94782.83
2018-07-07T10:25:15.390Z,94793.10
2018-07-07T10:27:44.242Z,94800.21
2018-07-07T10:30:13.283Z,94813.89
2018-07-07T10:32:42.320Z,94820.17
2018-07-07T10:35:11.304Z,94824.19
2018-07-07T10:37:40.374Z,94835.78
2018-07-07T10:40:09.106Z,94842.61
2018-07-07T10:42:38.207Z,94842.59
2018-07-07T10:45:08.758Z,94835.88
2018-07-07T10:47:37.633Z,94829.06
2018-07-07T10:50:06.525Z,94828.72
2018-07-07T10:52:36.064Z,94830.40
2018-07-07T10:55:05.174Z,94819.45
2018-07-07T10:57:33.898Z,94810.98
2018-07-07T11:00:02.947Z,94802.95
2018-07-07T11:02:31.809Z,94814.80
2018-07-07T11:05:00.506Z,94807.37
2018-07-07T11:07:29.610Z,94796.08
2018-07-07T11:09:58.319Z,94801.89
2018-07-07T11:12:27.174Z,94798.81
2018-07-07T11:14:56.303Z,94797.47
2018-07-07T11:17:25.558Z,94798.81
2018-07-07T11:19:55.006Z,94803.23
2018-07-07T11:22:24.486Z,94802.38
2018-07-07T11:24:53.978Z,94798.69
2018-07-07T11:27:22.761Z,94793.23
2018-07-07T11:29:52.191Z,94792.69
2018-07-07T11:32:20.862Z,94793.23
2018-07-07T11:34:50.140Z,94791.70
2018-07-07T11:37:19.390Z,94793.15
2018-07-07T11:39:48.344Z,94795.09
2018-07-07T11:42:17.601Z,94800.65
2018-07-07T11:44:46.668Z,94800.09
2018-07-07T11:47:15.634Z,94800.19
2018-07-07T11:49:44.637Z,94801.77
2018-07-07T11:52:13.667Z,94799.09
2018-07-07T11:54:42.522Z,94807.78
2018-07-07T11:57:11.554Z,94808.77
2018-07-07T11:59:40.777Z,94806.44
2018-07-07T12:02:09.813Z,94811.59
2018-07-07T12:04:38.645Z,94818.65
2018-07-07T12:07:07.821Z,94825.23
2018-07-07T12:09:36.917Z,94828.00
2018-07-07T12:12:05.867Z,94834.78
2018-07-07T12:14:35.601Z,94826.96
2018-07-07T12:17:04.702Z,94837.12
2018-07-07T12:19:33.725Z,94829.88
2018-07-07T12:22:03.150Z,94832.55
2018-07-07T12:24:32.067Z,94831.97
2018-07-07T12:27:00.828Z,94844.36
2018-07-07T12:29:30.230Z,94842.47
2018-07-07T12:31:59.325Z,94845.94
2018-07-07T12:34:28.157Z,94844.59
2018-07-07T12:36:57.220Z,94840.58
2018-07-07T12:39:26.261Z,94838.22
2018-07-07T12:41:55.455Z,94840.58
2018-07-07T12:44:24.482Z,94833.01
2018-07-07T12:46:53.433Z,94832.77
2018-07-07T12:49:23.851Z,94827.86
2018-07-07T12:51:53.113Z,94806.79
2018-07-07T12:54:21.970Z,94807.58
2018-07-07T12:56:50.857Z,94803.33
2018-07-07T12:59:20.235Z,94805.34
2018-07-07T13:01:49.145Z,94805.25
2018-07-07T13:04:18.130Z,94800.50
2018-07-07T13:06:47.658Z,94794.45
2018-07-07T13:09:16.637Z,94785.06
2018-07-07T13:11:45.422Z,94781.06
2018-07-07T13:14:14.718Z,94771.89
2018-07-07T13:16:43.687Z,94770.89
2018-07-07T13:19:12.665Z,94768.23
2018-07-07T13:21:41.753Z,94769.83
2018-07-07T13:24:10.703Z,94767.77
2018-07-07T13:26:39.750Z,94763.76
2018-07-07T13:29:08.685Z,94762.67
2018-07-07T13:31:37.474Z,94766.69
2018-07-07T13:34:06.383Z,94763.45
2018-07-07T13:36:35.733Z,94759.00
2018-07-07T13:39:05.185Z,94759.34
2018-07-07T13:41:33.897Z,94759.34
2018-07-07T13:44:03.089Z,94755.54
2018-07-07T13:46:32.103Z,94755.65
2018-07-07T13:49:00.977Z,94755.80
2018-07-07T13:51:30.361Z,94758.03
2018-07-07T13:53:59.292Z,94752.44
2018-07-07T13:56:28.194Z,94751.10
2018-07-07T13:58:57.402Z,94745.56
2018-07-07T14:01:26.318Z,94747.52
2018-07-07T14:03:55.115Z,94742.22
2018-07-07T14:06:24.362Z,94743.56
2018-07-07T14:08:53.429Z,94747.89
2018-07-07T14:11:22.344Z,94740.66
2018-07-07T14:13:51.538Z,94747.78
2018-07-07T14:16:20.332Z,94739.84
2018-07-07T14:18:49.270Z,94726.55
2018-07-07T14:21:18.117Z,94731.89
2018-07-07T14:23:47.063Z,94727.29
2018-07-07T14:26:16.203Z,94730.73
2018-07-07T14:28:45.281Z,94726.47
2018-07-07T14:31:14.352Z,94727.89
2018-07-07T14:33:43.359Z,94727.73
2018-07-07T14:36:12.885Z,94733.64
2018-07-07T14:38:42.026Z,94741.09
2018-07-07T14:41:17.187Z,94736.81
2018-07-07T14:43:59.098Z,94736.78
2018-07-07T14:46:28.623Z,94746.80
2018-07-07T14:48:57.289Z,94749.45
2018-07-07T14:51:26.020Z,94740.94
2018-07-07T14:53:55.482Z,94748.27
2018-07-07T14:56:25.020Z,94630.02
2018-07-07T14:58:53.875Z,94751.13
2018-07-07T15:01:23.141Z,94754.67
2018-07-07T15:03:51.969Z,94755.31
2018-07-07T15:06:20.663Z,94753.06
2018-07-07T15:08:49.974Z,94752.43
2018-07-07T15:11:18.780Z,94759.13
2018-07-07T15:13:48.362Z,94750.19
2018-07-07T15:16:17.493Z,94752.86
2018-07-07T15:36:02.429Z,94744.59
2018-07-07T15:38:31.671Z,94733.16
2018-07-07T15:41:00.563Z,94731.73
2018-07-07T15:43:29.527Z,94731.50
2018-07-07T15:45:58.670Z,94726.59
2018-07-07T15:48:27.532Z,94727.02
2018-07-07T15:50:56.623Z,94723.98
2018-07-07T15:53:25.894Z,94728.17
2018-07-07T15:55:55.007Z,94734.05
2018-07-07T15:58:23.797Z,94726.40
2018-07-07T16:18:08.979Z,94722.58
2018-07-07T16:20:38.077Z,94719.62
2018-07-07T16:23:07.246Z,94719.69
2018-07-07T16:42:52.628Z,94724.20
2018-07-07T16:45:21.599Z,94719.92
2018-07-07T16:47:50.658Z,94726.25
2018-07-07T16:50:19.846Z,94730.48
2018-07-07T16:52:48.965Z,94729.98
2018-07-07T16:55:18.067Z,94732.67
2018-07-07T16:57:47.326Z,94740.43
2018-07-07T17:00:16.274Z,94747.50
2018-07-07T17:02:45.458Z,94750.31
2018-07-07T17:05:14.604Z,94753.92
2018-07-07T17:07:43.524Z,94758.38
2018-07-07T17:10:12.662Z,94750.54
2018-07-07T17:12:42.136Z,94753.80
2018-07-07T17:32:27.341Z,94744.16
2018-07-07T17:34:57.168Z,94751.69
2018-07-07T17:37:26.482Z,94752.91
2018-07-07T17:39:55.755Z,94753.49
2018-07-07T17:42:25.096Z,94755.64
2018-07-07T17:44:54.034Z,94760.92
2018-07-07T17:47:23.332Z,94766.86
2018-07-07T18:07:11.362Z,94744.33
2018-07-07T18:26:56.917Z,94756.34
2018-07-07T18:46:43.389Z,94788.19
2018-07-07T18:49:12.430Z,94792.84
2018-07-07T18:51:41.629Z,94793.48
2018-07-07T18:54:10.461Z,94799.27
2018-07-07T18:56:39.504Z,94804.87
2018-07-07T19:16:24.725Z,94817.30
2018-07-07T19:36:13.176Z,94801.88
2018-07-07T19:38:42.205Z,94804.55
2018-07-07T19:58:26.666Z,94802.55
2018-07-07T20:00:55.699Z,94806.97
2018-07-07T20:20:46.103Z,94811.27
2018-07-07T20:23:16.614Z,94810.16
2018-07-07T20:25:50.915Z,94809.25
2018-07-07T21:02:54.815Z,94807.59
2018-07-07T21:05:24.036Z,94807.38
2018-07-07T21:25:10.846Z,94803.87
2018-07-07T21:27:39.919Z,94803.32
2018-07-07T21:30:08.930Z,94813.48
2018-07-07T21:32:38.310Z,94803.87
2018-07-07T21:35:07.567Z,94806.88
2018-07-07T21:37:36.791Z,94807.42
2018-07-07T21:40:06.276Z,94810.80
2018-07-07T21:59:51.181Z,94801.58
2018-07-07T22:02:25.423Z,94806.38
2018-07-07T22:04:59.423Z,94806.94
2018-07-07T22:07:33.875Z,94804.70
2018-07-07T22:10:02.727Z,94809.62
2018-07-07T22:12:31.868Z,94806.30
2018-07-07T22:15:01.223Z,94806.06
2018-07-07T22:17:30.079Z,94804.38
2018-07-07T22:19:59.211Z,94803.38
2018-07-07T22:22:28.742Z,94800.16
2018-07-07T22:24:57.499Z,94804.95
2018-07-07T22:44:44.013Z,94792.84
2018-07-07T22:47:12.810Z,94800.09
2018-07-07T22:49:41.965Z,94792.41
2018-07-07T23:09:26.992Z,94774.18
2018-07-07T23:11:56.004Z,94777.41
2018-07-07T23:14:25.154Z,94770.28
2018-07-07T23:16:58.313Z,94773.83
2018-07-07T23:19:27.596Z,94768.24
2018-07-07T23:21:56.895Z,94770.28
2018-07-07T23:24:25.974Z,94757.44
2018-07-07T23:26:55.371Z,94758.14
2018-07-07T23:29:24.493Z,94759.16
2018-07-07T23:31:53.817Z,94762.85
2018-07-07T23:34:22.696Z,94758.52
2018-07-07T23:36:51.573Z,94760.98
2018-07-07T23:39:20.635Z,94753.95
2018-07-07T23:41:49.379Z,94752.72
2018-07-07T23:44:18.561Z,94758.94
2018-07-07T23:46:47.493Z,94759.64
2018-07-07T23:49:16.436Z,94752.95
